sensor_id;sensor_type;location;lat;lon;timestamp;pressure;altitude;pressure_sealevel;temperature;humidity
78685;BME280;68002;52.310;6.990;2023-03-12T00:00:29;100884.88;;;-0.48;75.67
78685;BME280;68002;52.310;6.990;2023-03-12T00:02:55;100885.63;;;-0.46;75.99
78685;BME280;68002;52.310;6.990;2023-03-12T00:05:20;100891.88;;;-0.48;76.31
78685;BME280;68002;52.310;6.990;2023-03-12T00:07:45;100886.63;;;-0.48;77.52
78685;BME280;68002;52.310;6.990;2023-03-12T00:10:11;100881.44;;;-0.50;76.92
78685;BME280;68002;52.310;6.990;2023-03-12T00:12:36;100876.31;;;-0.53;77.37
78685;BME280;68002;52.310;6.990;2023-03-12T00:15:01;100868.44;;;-0.53;76.72
78685;BME280;68002;52.310;6.990;2023-03-12T00:17:28;100868.44;;;-0.53;76.93
78685;BME280;68002;52.310;6.990;2023-03-12T00:19:53;100866.66;;;-0.52;77.86
78685;BME280;68002;52.310;6.990;2023-03-12T00:22:18;100865.72;;;-0.51;78.15
78685;BME280;68002;52.310;6.990;2023-03-12T00:24:43;100866.47;;;-0.48;77.16
78685;BME280;68002;52.310;6.990;2023-03-12T00:27:09;100865.63;;;-0.48;76.92
78685;BME280;68002;52.310;6.990;2023-03-12T00:29:34;100863.97;;;-0.51;77.83
78685;BME280;68002;52.310;6.990;2023-03-12T00:31:59;100859.00;;;-0.57;77.21
78685;BME280;68002;52.310;6.990;2023-03-12T00:34:25;100853.81;;;-0.58;78.15
78685;BME280;68002;52.310;6.990;2023-03-12T00:36:50;100860.19;;;-0.64;78.91
78685;BME280;68002;52.310;6.990;2023-03-12T00:39:15;100853.38;;;-0.68;78.15
78685;BME280;68002;52.310;6.990;2023-03-12T00:41:40;100855.25;;;-0.71;77.84
78685;BME280;68002;52.310;6.990;2023-03-12T00:44:06;100845.13;;;-0.79;77.40
78685;BME280;68002;52.310;6.990;2023-03-12T00:46:31;100849.69;;;-0.84;76.70
78685;BME280;68002;52.310;6.990;2023-03-12T00:48:56;100840.41;;;-0.91;77.14
78685;BME280;68002;52.310;6.990;2023-03-12T00:51:21;100829.72;;;-1.07;78.59
78685;BME280;68002;52.310;6.990;2023-03-12T00:53:46;100824.72;;;-1.13;78.40
78685;BME280;68002;52.310;6.990;2023-03-12T00:56:12;100837.53;;;-1.05;77.62
78685;BME280;68002;52.310;6.990;2023-03-12T00:58:37;100835.00;;;-1.08;78.43
78685;BME280;68002;52.310;6.990;2023-03-12T01:01:04;100831.56;;;-1.09;78.49
78685;BME280;68002;52.310;6.990;2023-03-12T01:03:29;100832.34;;;-1.07;77.81
78685;BME280;68002;52.310;6.990;2023-03-12T01:05:54;100823.69;;;-1.09;77.95
78685;BME280;68002;52.310;6.990;2023-03-12T01:08:21;100821.91;;;-1.08;77.96
78685;BME280;68002;52.310;6.990;2023-03-12T01:10:46;100828.78;;;-1.06;79.04
78685;BME280;68002;52.310;6.990;2023-03-12T01:13:11;100828.72;;;-1.04;77.79
78685;BME280;68002;52.310;6.990;2023-03-12T01:15:37;100829.59;;;-1.04;77.78
78685;BME280;68002;52.310;6.990;2023-03-12T01:18:02;100836.53;;;-1.03;78.11
78685;BME280;68002;52.310;6.990;2023-03-12T01:20:27;100826.88;;;-1.02;77.23
78685;BME280;68002;52.310;6.990;2023-03-12T01:22:53;100818.22;;;-1.04;77.27
78685;BME280;68002;52.310;6.990;2023-03-12T01:25:18;100824.16;;;-0.99;77.77
78685;BME280;68002;52.310;6.990;2023-03-12T01:27:43;100822.44;;;-1.00;77.39
78685;BME280;68002;52.310;6.990;2023-03-12T01:30:09;100816.28;;;-0.99;77.16
78685;BME280;68002;52.310;6.990;2023-03-12T01:32:35;100807.63;;;-1.01;77.62
78685;BME280;68002;52.310;6.990;2023-03-12T01:35:00;100807.47;;;-0.98;77.95
78685;BME280;68002;52.310;6.990;2023-03-12T01:37:26;100817.00;;;-0.95;78.31
78685;BME280;68002;52.310;6.990;2023-03-12T01:39:52;100810.81;;;-0.94;77.89
78685;BME280;68002;52.310;6.990;2023-03-12T01:42:17;100816.13;;;-0.96;78.61
78685;BME280;68002;52.310;6.990;2023-03-12T01:44:57;100813.28;;;-0.91;79.25
78685;BME280;68002;52.310;6.990;2023-03-12T01:47:23;100816.66;;;-0.88;78.78
78685;BME280;68002;52.310;6.990;2023-03-12T01:49:51;100805.22;;;-0.87;78.52
78685;BME280;68002;52.310;6.990;2023-03-12T01:52:28;100805.03;;;-0.82;79.38
78685;BME280;68002;52.310;6.990;2023-03-12T01:55:00;100811.03;;;-0.80;79.67
78685;BME280;68002;52.310;6.990;2023-03-12T02:00:02;100795.16;;;-0.77;79.30
78685;BME280;68002;52.310;6.990;2023-03-12T02:02:29;100796.84;;;-0.76;78.10
78685;BME280;68002;52.310;6.990;2023-03-12T02:05:02;100792.53;;;-0.77;78.36
78685;BME280;68002;52.310;6.990;2023-03-12T02:07:29;100795.25;;;-0.79;79.72
78685;BME280;68002;52.310;6.990;2023-03-12T02:09:54;100803.03;;;-0.77;78.49
78685;BME280;68002;52.310;6.990;2023-03-12T02:12:19;100787.41;;;-0.80;79.00
78685;BME280;68002;52.310;6.990;2023-03-12T02:14:44;100792.63;;;-0.79;79.32
78685;BME280;68002;52.310;6.990;2023-03-12T02:17:10;100783.88;;;-0.79;78.09
78685;BME280;68002;52.310;6.990;2023-03-12T02:19:51;100786.44;;;-0.78;78.77
78685;BME280;68002;52.310;6.990;2023-03-12T02:22:20;100770.75;;;-0.79;78.20
78685;BME280;68002;52.310;6.990;2023-03-12T02:27:15;100776.16;;;-0.82;78.28
78685;BME280;68002;52.310;6.990;2023-03-12T02:29:44;100771.47;;;-0.76;78.92
78685;BME280;68002;52.310;6.990;2023-03-12T02:32:16;100773.84;;;-0.71;77.60
78685;BME280;68002;52.310;6.990;2023-03-12T02:34:44;100770.25;;;-0.69;78.99
78685;BME280;68002;52.310;6.990;2023-03-12T02:37:09;100768.25;;;-0.64;78.69
78685;BME280;68002;52.310;6.990;2023-03-12T02:39:34;100766.13;;;-0.56;78.01
78685;BME280;68002;52.310;6.990;2023-03-12T02:42:00;100750.22;;;-0.53;78.28
78685;BME280;68002;52.310;6.990;2023-03-12T02:44:29;100757.91;;;-0.48;77.18
78685;BME280;68002;52.310;6.990;2023-03-12T02:46:56;100755.13;;;-0.45;77.84
78685;BME280;68002;52.310;6.990;2023-03-12T02:49:24;100755.84;;;-0.42;78.05
78685;BME280;68002;52.310;6.990;2023-03-12T02:51:50;100746.72;;;-0.35;77.24
78685;BME280;68002;52.310;6.990;2023-03-12T02:54:17;100751.97;;;-0.35;76.87
78685;BME280;68002;52.310;6.990;2023-03-12T02:56:43;100730.56;;;-0.44;77.44
78685;BME280;68002;52.310;6.990;2023-03-12T02:59:09;100741.34;;;-0.32;77.46
78685;BME280;68002;52.310;6.990;2023-03-12T03:01:34;100742.25;;;-0.33;78.79
78685;BME280;68002;52.310;6.990;2023-03-12T03:04:01;100739.63;;;-0.33;77.28
78685;BME280;68002;52.310;6.990;2023-03-12T03:06:27;100737.94;;;-0.34;78.01
78685;BME280;68002;52.310;6.990;2023-03-12T03:08:53;100721.56;;;-0.39;77.98
78685;BME280;68002;52.310;6.990;2023-03-12T03:11:18;100730.84;;;-0.32;77.08
78685;BME280;68002;52.310;6.990;2023-03-12T03:13:44;100716.69;;;-0.29;77.33
78685;BME280;68002;52.310;6.990;2023-03-12T03:16:09;100714.72;;;-0.24;77.37
78685;BME280;68002;52.310;6.990;2023-03-12T03:18:34;100710.97;;;-0.20;76.80
78685;BME280;68002;52.310;6.990;2023-03-12T03:21:02;100705.50;;;-0.16;76.72
78685;BME280;68002;52.310;6.990;2023-03-12T03:23:28;100692.28;;;-0.14;76.39
78685;BME280;68002;52.310;6.990;2023-03-12T03:25:54;100685.88;;;-0.09;76.95
78685;BME280;68002;52.310;6.990;2023-03-12T03:28:21;100694.53;;;-0.07;77.43
78685;BME280;68002;52.310;6.990;2023-03-12T03:30:46;100691.00;;;-0.06;76.89
78685;BME280;68002;52.310;6.990;2023-03-12T03:33:11;100693.75;;;-0.09;77.38
78685;BME280;68002;52.310;6.990;2023-03-12T03:35:37;100697.41;;;-0.11;76.93
78685;BME280;68002;52.310;6.990;2023-03-12T03:38:02;100691.13;;;-0.09;77.58
78685;BME280;68002;52.310;6.990;2023-03-12T03:40:27;100690.28;;;-0.09;77.08
78685;BME280;68002;52.310;6.990;2023-03-12T03:42:53;100679.63;;;-0.06;76.71
78685;BME280;68002;52.310;6.990;2023-03-12T03:45:18;100678.59;;;-0.04;76.86
78685;BME280;68002;52.310;6.990;2023-03-12T03:47:43;100683.47;;;0.04;77.46
78685;BME280;68002;52.310;6.990;2023-03-12T03:50:09;100683.19;;;0.10;76.83
78685;BME280;68002;52.310;6.990;2023-03-12T03:52:35;100677.94;;;0.10;77.04
78685;BME280;68002;52.310;6.990;2023-03-12T03:55:00;100682.19;;;0.13;77.19
78685;BME280;68002;52.310;6.990;2023-03-12T03:57:26;100685.44;;;0.18;76.71
78685;BME280;68002;52.310;6.990;2023-03-12T03:59:51;100677.38;;;0.21;76.23
78685;BME280;68002;52.310;6.990;2023-03-12T04:02:16;100673.66;;;0.25;76.22
78685;BME280;68002;52.310;6.990;2023-03-12T04:04:41;100676.13;;;0.28;76.06
78685;BME280;68002;52.310;6.990;2023-03-12T04:07:06;100669.97;;;0.29;75.73
78685;BME280;68002;52.310;6.990;2023-03-12T04:09:32;100674.13;;;0.33;75.19
78685;BME280;68002;52.310;6.990;2023-03-12T04:11:57;100673.03;;;0.37;75.04
78685;BME280;68002;52.310;6.990;2023-03-12T04:14:22;100666.00;;;0.37;75.05
78685;BME280;68002;52.310;6.990;2023-03-12T04:16:47;100666.78;;;0.39;75.02
78685;BME280;68002;52.310;6.990;2023-03-12T04:19:13;100664.38;;;0.35;74.92
78685;BME280;68002;52.310;6.990;2023-03-12T04:21:38;100661.00;;;0.33;75.23
78685;BME280;68002;52.310;6.990;2023-03-12T04:24:04;100673.38;;;0.31;75.09
78685;BME280;68002;52.310;6.990;2023-03-12T04:26:29;100664.63;;;0.30;74.40
78685;BME280;68002;52.310;6.990;2023-03-12T04:28:55;100661.13;;;0.30;74.81
78685;BME280;68002;52.310;6.990;2023-03-12T04:31:20;100646.47;;;0.26;75.11
78685;BME280;68002;52.310;6.990;2023-03-12T04:33:46;100641.34;;;0.23;75.07
78685;BME280;68002;52.310;6.990;2023-03-12T04:36:11;100626.50;;;0.22;74.21
78685;BME280;68002;52.310;6.990;2023-03-12T04:38:36;100623.78;;;0.23;74.53
78685;BME280;68002;52.310;6.990;2023-03-12T04:41:07;100621.06;;;0.25;75.04
78685;BME280;68002;52.310;6.990;2023-03-12T04:43:33;100611.22;;;0.28;74.70
78685;BME280;68002;52.310;6.990;2023-03-12T04:45:59;100606.56;;;0.33;74.38
78685;BME280;68002;52.310;6.990;2023-03-12T04:48:25;100607.34;;;0.35;73.99
78685;BME280;68002;52.310;6.990;2023-03-12T04:50:51;100611.44;;;0.41;74.29
78685;BME280;68002;52.310;6.990;2023-03-12T04:53:17;100603.41;;;0.44;74.22
78685;BME280;68002;52.310;6.990;2023-03-12T04:55:42;100600.59;;;0.47;74.44
78685;BME280;68002;52.310;6.990;2023-03-12T04:58:07;100595.16;;;0.50;75.17
78685;BME280;68002;52.310;6.990;2023-03-12T05:00:33;100587.34;;;0.48;74.92
78685;BME280;68002;52.310;6.990;2023-03-12T05:02:58;100575.28;;;0.44;75.10
78685;BME280;68002;52.310;6.990;2023-03-12T05:05:23;100570.88;;;0.45;75.04
78685;BME280;68002;52.310;6.990;2023-03-12T05:07:49;100572.34;;;0.50;74.49
78685;BME280;68002;52.310;6.990;2023-03-12T05:10:14;100567.75;;;0.54;74.16
78685;BME280;68002;52.310;6.990;2023-03-12T05:12:39;100567.44;;;0.60;74.30
78685;BME280;68002;52.310;6.990;2023-03-12T05:15:05;100562.84;;;0.63;74.51
78685;BME280;68002;52.310;6.990;2023-03-12T05:17:30;100560.13;;;0.65;74.17
78685;BME280;68002;52.310;6.990;2023-03-12T05:19:55;100565.31;;;0.66;74.22
78685;BME280;68002;52.310;6.990;2023-03-12T05:22:20;100566.75;;;0.72;74.10
78685;BME280;68002;52.310;6.990;2023-03-12T05:24:46;100553.59;;;0.72;74.05
78685;BME280;68002;52.310;6.990;2023-03-12T05:27:11;100554.22;;;0.77;74.02
78685;BME280;68002;52.310;6.990;2023-03-12T05:29:36;100559.22;;;0.81;74.69
78685;BME280;68002;52.310;6.990;2023-03-12T05:32:02;100560.06;;;0.82;73.86
78685;BME280;68002;52.310;6.990;2023-03-12T05:34:27;100559.88;;;0.85;73.66
78685;BME280;68002;52.310;6.990;2023-03-12T05:36:52;100563.28;;;0.87;73.65
78685;BME280;68002;52.310;6.990;2023-03-12T05:39:18;100562.19;;;0.91;73.27
78685;BME280;68002;52.310;6.990;2023-03-12T05:41:43;100560.22;;;0.94;73.87
78685;BME280;68002;52.310;6.990;2023-03-12T05:44:10;100556.59;;;0.97;73.58
78685;BME280;68002;52.310;6.990;2023-03-12T05:46:36;100553.88;;;0.98;73.47
78685;BME280;68002;52.310;6.990;2023-03-12T05:49:01;100544.94;;;1.01;74.15
78685;BME280;68002;52.310;6.990;2023-03-12T05:51:26;100551.06;;;1.01;72.47
78685;BME280;68002;52.310;6.990;2023-03-12T05:53:51;100543.06;;;1.03;73.36
78685;BME280;68002;52.310;6.990;2023-03-12T05:56:17;100546.38;;;1.07;72.74
78685;BME280;68002;52.310;6.990;2023-03-12T05:58:43;100533.19;;;1.07;72.66
78685;BME280;68002;52.310;6.990;2023-03-12T06:01:17;100539.91;;;1.12;73.47
78685;BME280;68002;52.310;6.990;2023-03-12T06:03:42;100530.31;;;1.11;72.99
78685;BME280;68002;52.310;6.990;2023-03-12T06:06:08;100530.22;;;1.13;72.53
78685;BME280;68002;52.310;6.990;2023-03-12T06:08:34;100537.88;;;1.17;71.91
78685;BME280;68002;52.310;6.990;2023-03-12T06:10:59;100533.28;;;1.21;72.08
78685;BME280;68002;52.310;6.990;2023-03-12T06:13:24;100534.19;;;1.20;72.19
78685;BME280;68002;52.310;6.990;2023-03-12T06:15:49;100530.38;;;1.25;72.33
78685;BME280;68002;52.310;6.990;2023-03-12T06:18:15;100525.69;;;1.30;72.46
78685;BME280;68002;52.310;6.990;2023-03-12T06:20:40;100523.75;;;1.34;72.80
78685;BME280;68002;52.310;6.990;2023-03-12T06:23:06;100521.00;;;1.35;73.38
78685;BME280;68002;52.310;6.990;2023-03-12T06:25:31;100518.28;;;1.37;72.89
78685;BME280;68002;52.310;6.990;2023-03-12T06:27:56;100524.88;;;1.44;72.67
78685;BME280;68002;52.310;6.990;2023-03-12T06:30:22;100521.41;;;1.43;72.76
78685;BME280;68002;52.310;6.990;2023-03-12T06:32:47;100526.31;;;1.49;71.79
78685;BME280;68002;52.310;6.990;2023-03-12T06:35:12;100533.28;;;1.50;72.55
78685;BME280;68002;52.310;6.990;2023-03-12T06:37:37;100527.19;;;1.50;71.90
78685;BME280;68002;52.310;6.990;2023-03-12T06:40:03;100522.72;;;1.50;72.13
78685;BME280;68002;52.310;6.990;2023-03-12T06:42:28;100516.34;;;1.54;72.25
78685;BME280;68002;52.310;6.990;2023-03-12T06:44:53;100508.34;;;1.56;71.86
78685;BME280;68002;52.310;6.990;2023-03-12T06:47:19;100516.94;;;1.59;72.40
78685;BME280;68002;52.310;6.990;2023-03-12T06:49:44;100507.81;;;1.65;71.83
78685;BME280;68002;52.310;6.990;2023-03-12T06:52:09;100502.63;;;1.63;70.97
78685;BME280;68002;52.310;6.990;2023-03-12T06:54:35;100507.28;;;1.74;71.82
78685;BME280;68002;52.310;6.990;2023-03-12T06:57:00;100511.16;;;1.82;71.82
78685;BME280;68002;52.310;6.990;2023-03-12T06:59:26;100509.81;;;1.89;70.97
78685;BME280;68002;52.310;6.990;2023-03-12T07:01:51;100501.66;;;1.94;71.46
78685;BME280;68002;52.310;6.990;2023-03-12T07:04:17;100503.13;;;1.98;70.66
78685;BME280;68002;52.310;6.990;2023-03-12T07:06:42;100506.16;;;2.06;70.75
78685;BME280;68002;52.310;6.990;2023-03-12T07:09:08;100514.53;;;2.13;70.20
78685;BME280;68002;52.310;6.990;2023-03-12T07:11:33;100513.81;;;2.11;70.76
78685;BME280;68002;52.310;6.990;2023-03-12T07:13:58;100502.22;;;2.13;70.33
78685;BME280;68002;52.310;6.990;2023-03-12T07:16:24;100490.81;;;2.13;70.80
78685;BME280;68002;52.310;6.990;2023-03-12T07:18:49;100488.75;;;2.18;69.99
78685;BME280;68002;52.310;6.990;2023-03-12T07:21:14;100491.50;;;2.16;70.62
78685;BME280;68002;52.310;6.990;2023-03-12T07:23:40;100493.28;;;2.16;70.54
78685;BME280;68002;52.310;6.990;2023-03-12T07:26:05;100491.50;;;2.16;70.34
78685;BME280;68002;52.310;6.990;2023-03-12T07:28:30;100480.19;;;2.14;71.64
78685;BME280;68002;52.310;6.990;2023-03-12T07:31:00;100482.63;;;2.17;70.41
78685;BME280;68002;52.310;6.990;2023-03-12T07:33:25;100481.28;;;2.24;71.15
78685;BME280;68002;52.310;6.990;2023-03-12T07:35:51;100483.72;;;2.27;71.73
78685;BME280;68002;52.310;6.990;2023-03-12T07:38:16;100476.28;;;2.34;71.42
78685;BME280;68002;52.310;6.990;2023-03-12T07:40:41;100473.34;;;2.38;71.27
78685;BME280;68002;52.310;6.990;2023-03-12T07:43:06;100482.13;;;2.39;72.51
78685;BME280;68002;52.310;6.990;2023-03-12T07:45:31;100478.84;;;2.35;72.38
78685;BME280;68002;52.310;6.990;2023-03-12T07:47:57;100479.03;;;2.32;73.53
78685;BME280;68002;52.310;6.990;2023-03-12T07:50:22;100481.03;;;2.29;72.90
78685;BME280;68002;52.310;6.990;2023-03-12T07:52:49;100478.84;;;2.35;72.88
78685;BME280;68002;52.310;6.990;2023-03-12T07:55:14;100474.03;;;2.42;73.46
78685;BME280;68002;52.310;6.990;2023-03-12T07:57:39;100477.31;;;2.45;73.66
78685;BME280;68002;52.310;6.990;2023-03-12T08:00:06;100474.16;;;2.53;73.30
78685;BME280;68002;52.310;6.990;2023-03-12T08:02:32;100461.94;;;2.52;73.38
78685;BME280;68002;52.310;6.990;2023-03-12T08:04:57;100441.47;;;2.55;74.73
78685;BME280;68002;52.310;6.990;2023-03-12T08:07:22;100450.03;;;2.59;74.34
78685;BME280;68002;52.310;6.990;2023-03-12T08:09:48;100448.25;;;2.59;75.32
78685;BME280;68002;52.310;6.990;2023-03-12T08:12:13;100436.81;;;2.59;75.14
78685;BME280;68002;52.310;6.990;2023-03-12T08:14:38;100437.78;;;2.58;75.85
78685;BME280;68002;52.310;6.990;2023-03-12T08:17:03;100434.19;;;2.59;75.66
78685;BME280;68002;52.310;6.990;2023-03-12T08:19:28;100432.50;;;2.58;75.82
78685;BME280;68002;52.310;6.990;2023-03-12T08:21:54;100443.41;;;2.66;75.97
78685;BME280;68002;52.310;6.990;2023-03-12T08:24:20;100432.56;;;2.70;76.07
78685;BME280;68002;52.310;6.990;2023-03-12T08:26:45;100430.84;;;2.69;75.95
78685;BME280;68002;52.310;6.990;2023-03-12T08:29:11;100443.88;;;2.72;76.96
78685;BME280;68002;52.310;6.990;2023-03-12T08:31:36;100445.44;;;2.75;76.68
78685;BME280;68002;52.310;6.990;2023-03-12T08:34:01;100432.16;;;2.76;76.16
78685;BME280;68002;52.310;6.990;2023-03-12T08:36:27;100432.25;;;2.75;77.99
78685;BME280;68002;52.310;6.990;2023-03-12T08:38:52;100435.09;;;2.72;77.84
78685;BME280;68002;52.310;6.990;2023-03-12T08:41:18;100426.44;;;2.70;77.86
78685;BME280;68002;52.310;6.990;2023-03-12T08:43:44;100437.09;;;2.68;77.82
78685;BME280;68002;52.310;6.990;2023-03-12T08:46:09;100435.41;;;2.67;78.23
78685;BME280;68002;52.310;6.990;2023-03-12T08:48:34;100433.09;;;2.75;77.58
78685;BME280;68002;52.310;6.990;2023-03-12T08:51:00;100427.72;;;2.77;77.42
78685;BME280;68002;52.310;6.990;2023-03-12T08:53:26;100415.25;;;2.79;77.17
78685;BME280;68002;52.310;6.990;2023-03-12T08:55:53;100432.25;;;2.75;77.94
78685;BME280;68002;52.310;6.990;2023-03-12T08:58:18;100422.53;;;2.75;78.03
78685;BME280;68002;52.310;6.990;2023-03-12T09:00:44;100420.44;;;2.80;78.19
78685;BME280;68002;52.310;6.990;2023-03-12T09:03:09;100407.03;;;2.83;78.07
78685;BME280;68002;52.310;6.990;2023-03-12T09:05:34;100413.50;;;2.92;78.12
78685;BME280;68002;52.310;6.990;2023-03-12T09:07:59;100408.56;;;3.00;78.14
78685;BME280;68002;52.310;6.990;2023-03-12T09:10:24;100404.97;;;3.01;78.40
78685;BME280;68002;52.310;6.990;2023-03-12T09:12:50;100405.50;;;3.06;78.10
78685;BME280;68002;52.310;6.990;2023-03-12T09:15:15;100404.56;;;3.07;78.17
78685;BME280;68002;52.310;6.990;2023-03-12T09:17:40;100395.56;;;3.09;79.04
78685;BME280;68002;52.310;6.990;2023-03-12T09:20:08;100403.97;;;3.16;78.18
78685;BME280;68002;52.310;6.990;2023-03-12T09:22:35;100388.41;;;3.12;79.34
78685;BME280;68002;52.310;6.990;2023-03-12T09:25:05;100383.97;;;3.12;79.53
78685;BME280;68002;52.310;6.990;2023-03-12T09:27:44;100387.25;;;3.16;78.67
78685;BME280;68002;52.310;6.990;2023-03-12T09:30:13;100384.31;;;3.20;79.56
78685;BME280;68002;52.310;6.990;2023-03-12T09:32:39;100383.88;;;3.26;80.23
78685;BME280;68002;52.310;6.990;2023-03-12T09:35:06;100389.72;;;3.31;79.94
78685;BME280;68002;52.310;6.990;2023-03-12T09:37:31;100402.59;;;3.23;81.38
78685;BME280;68002;52.310;6.990;2023-03-12T09:39:57;100380.50;;;3.24;81.61
78685;BME280;68002;52.310;6.990;2023-03-12T09:42:25;100377.00;;;3.24;81.61
78685;BME280;68002;52.310;6.990;2023-03-12T09:44:56;100386.31;;;3.17;82.67
78685;BME280;68002;52.310;6.990;2023-03-12T09:47:47;100389.25;;;3.12;83.27
78685;BME280;68002;52.310;6.990;2023-03-12T09:50:29;100374.16;;;3.14;83.25
78685;BME280;68002;52.310;6.990;2023-03-12T09:53:04;100375.94;;;3.14;83.27
78685;BME280;68002;52.310;6.990;2023-03-12T09:55:37;100375.75;;;3.17;83.54
78685;BME280;68002;52.310;6.990;2023-03-12T09:58:03;100368.22;;;3.11;83.58
78685;BME280;68002;52.310;6.990;2023-03-12T10:00:31;100383.44;;;3.20;84.07
78685;BME280;68002;52.310;6.990;2023-03-12T10:14:18;100376.28;;;3.22;86.73
78685;BME280;68002;52.310;6.990;2023-03-12T10:17:47;100395.63;;;3.22;87.24
78685;BME280;68002;52.310;6.990;2023-03-12T10:28:19;100391.38;;;3.32;87.38
78685;BME280;68002;52.310;6.990;2023-03-12T10:30:54;100371.22;;;3.31;87.97
78685;BME280;68002;52.310;6.990;2023-03-12T10:33:22;100375.13;;;3.38;88.38
78685;BME280;68002;52.310;6.990;2023-03-12T10:35:50;100358.94;;;3.43;87.73
78685;BME280;68002;52.310;6.990;2023-03-12T10:38:21;100365.41;;;3.51;88.14
78685;BME280;68002;52.310;6.990;2023-03-12T10:40:50;100367.19;;;3.63;88.02
78685;BME280;68002;52.310;6.990;2023-03-12T10:43:15;100352.91;;;3.66;88.38
78685;BME280;68002;52.310;6.990;2023-03-12T10:45:58;100359.34;;;3.74;88.53
78685;BME280;68002;52.310;6.990;2023-03-12T10:48:25;100353.13;;;3.75;88.58
78685;BME280;68002;52.310;6.990;2023-03-12T10:51:07;100355.19;;;3.83;88.63
78685;BME280;68002;52.310;6.990;2023-03-12T10:53:39;100354.34;;;3.95;88.35
78685;BME280;68002;52.310;6.990;2023-03-12T10:56:13;100352.81;;;4.03;87.78
78685;BME280;68002;52.310;6.990;2023-03-12T10:58:41;100359.47;;;4.09;87.75
78685;BME280;68002;52.310;6.990;2023-03-12T11:01:28;100353.25;;;4.10;88.06
78685;BME280;68002;52.310;6.990;2023-03-12T11:04:13;100351.31;;;4.25;88.00
78685;BME280;68002;52.310;6.990;2023-03-12T11:06:40;100343.63;;;4.33;87.77
78685;BME280;68002;52.310;6.990;2023-03-12T11:09:15;100341.78;;;4.46;88.73
78685;BME280;68002;52.310;6.990;2023-03-12T11:11:41;100332.25;;;4.67;88.38
78685;BME280;68002;52.310;6.990;2023-03-12T11:14:15;100324.31;;;4.67;88.33
78685;BME280;68002;52.310;6.990;2023-03-12T11:16:41;100348.53;;;4.73;88.15
78685;BME280;68002;52.310;6.990;2023-03-12T11:19:11;100340.81;;;4.70;88.39
78685;BME280;68002;52.310;6.990;2023-03-12T11:21:37;100330.34;;;4.80;88.34
78685;BME280;68002;52.310;6.990;2023-03-12T11:24:09;100335.66;;;4.80;88.69
78685;BME280;68002;52.310;6.990;2023-03-12T11:26:40;100328.56;;;4.80;88.59
78685;BME280;68002;52.310;6.990;2023-03-12T11:29:16;100334.47;;;4.84;89.20
78685;BME280;68002;52.310;6.990;2023-03-12T11:31:50;100324.59;;;4.86;89.67
78685;BME280;68002;52.310;6.990;2023-03-12T11:34:23;100336.66;;;4.90;89.74
78685;BME280;68002;52.310;6.990;2023-03-12T11:36:59;100316.81;;;4.95;89.86
78685;BME280;68002;52.310;6.990;2023-03-12T11:44:40;100339.03;;;5.17;90.12
78685;BME280;68002;52.310;6.990;2023-03-12T11:47:31;100345.91;;;5.19;90.09
78685;BME280;68002;52.310;6.990;2023-03-12T12:06:03;100301.94;;;5.61;90.27
78685;BME280;68002;52.310;6.990;2023-03-12T12:08:44;100297.84;;;5.68;90.12
78685;BME280;68002;52.310;6.990;2023-03-12T12:14:28;100306.19;;;5.74;90.34
78685;BME280;68002;52.310;6.990;2023-03-12T12:17:17;100296.63;;;5.72;90.27
78685;BME280;68002;52.310;6.990;2023-03-12T12:22:45;100291.81;;;5.88;90.14
78685;BME280;68002;52.310;6.990;2023-03-12T12:25:27;100294.47;;;5.88;90.73
78685;BME280;68002;52.310;6.990;2023-03-12T12:28:16;100289.28;;;5.97;90.25
78685;BME280;68002;52.310;6.990;2023-03-12T12:31:06;100287.47;;;5.98;90.41
78685;BME280;68002;52.310;6.990;2023-03-12T12:33:48;100282.91;;;6.00;91.25
78685;BME280;68002;52.310;6.990;2023-03-12T12:36:16;100255.00;;;6.05;91.07
78685;BME280;68002;52.310;6.990;2023-03-12T12:39:12;100265.13;;;6.12;91.05
78685;BME280;68002;52.310;6.990;2023-03-12T12:41:48;100264.47;;;6.19;91.02
78685;BME280;68002;52.310;6.990;2023-03-12T12:44:19;100260.97;;;6.30;91.05
78685;BME280;68002;52.310;6.990;2023-03-12T12:46:49;100273.22;;;6.42;91.03
78685;BME280;68002;52.310;6.990;2023-03-12T12:49:58;100272.00;;;6.46;91.30
78685;BME280;68002;52.310;6.990;2023-03-12T12:52:09;100264.22;;;6.54;91.08
78685;BME280;68002;52.310;6.990;2023-03-12T12:57:22;100264.53;;;6.71;90.94
78685;BME280;68002;52.310;6.990;2023-03-12T13:02:29;100259.88;;;6.84;91.28
78685;BME280;68002;52.310;6.990;2023-03-12T13:04:57;100259.25;;;7.01;91.25
78685;BME280;68002;52.310;6.990;2023-03-12T13:09:50;100246.47;;;7.16;90.88
78685;BME280;68002;52.310;6.990;2023-03-12T13:12:42;100244.72;;;7.26;90.84
78685;BME280;68002;52.310;6.990;2023-03-12T13:20:23;100194.34;;;7.34;90.65
78685;BME280;68002;52.310;6.990;2023-03-12T13:26:25;100221.19;;;7.61;90.23
78685;BME280;68002;52.310;6.990;2023-03-12T13:28:35;100239.88;;;7.80;90.44
78685;BME280;68002;52.310;6.990;2023-03-12T13:31:32;100235.97;;;7.84;89.76
78685;BME280;68002;52.310;6.990;2023-03-12T13:33:49;100241.47;;;7.92;90.10
78685;BME280;68002;52.310;6.990;2023-03-12T13:47:28;100240.38;;;8.24;89.26
78685;BME280;68002;52.310;6.990;2023-03-12T13:50:00;100241.84;;;8.28;89.29
78685;BME280;68002;52.310;6.990;2023-03-12T13:52:31;100248.28;;;8.35;89.18
78685;BME280;68002;52.310;6.990;2023-03-12T13:57:48;100248.84;;;8.48;88.66
78685;BME280;68002;52.310;6.990;2023-03-12T14:03:27;100245.47;;;8.55;89.41
78685;BME280;68002;52.310;6.990;2023-03-12T14:05:59;100242.94;;;8.63;89.16
78685;BME280;68002;52.310;6.990;2023-03-12T14:11:37;100249.13;;;8.64;88.78
78685;BME280;68002;52.310;6.990;2023-03-12T14:17:02;100259.78;;;8.73;88.83
78685;BME280;68002;52.310;6.990;2023-03-12T14:19:29;100260.59;;;8.74;89.40
78685;BME280;68002;52.310;6.990;2023-03-12T14:21:59;100278.31;;;8.75;88.74
78685;BME280;68002;52.310;6.990;2023-03-12T14:24:32;100269.72;;;8.81;88.95
78685;BME280;68002;52.310;6.990;2023-03-12T14:27:00;100260.91;;;8.80;88.97
78685;BME280;68002;52.310;6.990;2023-03-12T14:32:04;100263.41;;;8.91;89.42
78685;BME280;68002;52.310;6.990;2023-03-12T14:34:39;100266.34;;;8.88;88.81